sensor_id;sensor_type;location;lat;lon;timestamp;P1;durP1;ratioP1;P2;durP2;ratioP2
7475;SDS011;3779;49.216;8.650;2022-08-25T00:01:42;2.92;;;2.30;;
7475;SDS011;3779;49.216;8.650;2022-08-25T00:04:22;2.70;;;2.50;;
7475;SDS011;3779;49.216;8.650;2022-08-25T00:07:08;3.25;;;2.40;;
7475;SDS011;3779;49.216;8.650;2022-08-25T00:09:55;2.50;;;2.30;;
7475;SDS011;3779;49.216;8.650;2022-08-25T00:12:40;3.10;;;2.25;;
7475;SDS011;3779;49.216;8.650;2022-08-25T00:15:27;3.60;;;2.55;;
7475;SDS011;3779;49.216;8.650;2022-08-25T00:18:15;3.50;;;2.60;;
7475;SDS011;3779;49.216;8.650;2022-08-25T00:21:01;2.97;;;2.78;;
7475;SDS011;3779;49.216;8.650;2022-08-25T00:23:48;2.75;;;2.55;;
7475;SDS011;3779;49.216;8.650;2022-08-25T00:26:36;2.80;;;2.60;;
7475;SDS011;3779;49.216;8.650;2022-08-25T00:29:26;4.47;;;2.72;;
7475;SDS011;3779;49.216;8.650;2022-08-25T00:32:16;2.83;;;2.40;;
7475;SDS011;3779;49.216;8.650;2022-08-25T00:35:02;3.67;;;2.47;;
7475;SDS011;3779;49.216;8.650;2022-08-25T00:37:49;2.85;;;2.55;;
7475;SDS011;3779;49.216;8.650;2022-08-25T00:40:35;3.00;;;2.72;;
7475;SDS011;3779;49.216;8.650;2022-08-25T00:43:23;3.92;;;3.00;;
7475;SDS011;3779;49.216;8.650;2022-08-25T00:46:12;3.33;;;2.45;;
7475;SDS011;3779;49.216;8.650;2022-08-25T00:49:07;3.03;;;2.70;;
7475;SDS011;3779;49.216;8.650;2022-08-25T00:55:08;3.28;;;2.70;;
7475;SDS011;3779;49.216;8.650;2022-08-25T00:58:05;3.03;;;2.80;;
7475;SDS011;3779;49.216;8.650;2022-08-25T01:00:58;3.55;;;2.80;;
7475;SDS011;3779;49.216;8.650;2022-08-25T01:03:44;5.32;;;3.10;;
7475;SDS011;3779;49.216;8.650;2022-08-25T01:06:30;4.68;;;3.10;;
7475;SDS011;3779;49.216;8.650;2022-08-25T01:09:20;3.63;;;3.03;;
7475;SDS011;3779;49.216;8.650;2022-08-25T01:12:06;4.20;;;2.92;;
7475;SDS011;3779;49.216;8.650;2022-08-25T01:14:52;3.00;;;2.70;;
7475;SDS011;3779;49.216;8.650;2022-08-25T01:17:49;5.75;;;3.50;;
7475;SDS011;3779;49.216;8.650;2022-08-25T01:20:37;3.17;;;2.85;;
7475;SDS011;3779;49.216;8.650;2022-08-25T01:23:23;3.13;;;2.92;;
7475;SDS011;3779;49.216;8.650;2022-08-25T01:26:18;4.07;;;3.10;;
7475;SDS011;3779;49.216;8.650;2022-08-25T01:29:07;4.80;;;2.80;;
7475;SDS011;3779;49.216;8.650;2022-08-25T01:32:07;3.78;;;3.00;;
7475;SDS011;3779;49.216;8.650;2022-08-25T01:34:56;3.00;;;2.80;;
7475;SDS011;3779;49.216;8.650;2022-08-25T01:37:42;3.40;;;2.90;;
7475;SDS011;3779;49.216;8.650;2022-08-25T01:40:28;3.28;;;3.05;;
7475;SDS011;3779;49.216;8.650;2022-08-25T01:46:00;5.65;;;2.92;;
7475;SDS011;3779;49.216;8.650;2022-08-25T01:48:46;5.45;;;3.10;;
7475;SDS011;3779;49.216;8.650;2022-08-25T01:51:33;5.60;;;2.97;;
7475;SDS011;3779;49.216;8.650;2022-08-25T01:54:23;3.38;;;3.08;;
7475;SDS011;3779;49.216;8.650;2022-08-25T01:57:09;4.00;;;2.80;;
7475;SDS011;3779;49.216;8.650;2022-08-25T01:59:55;3.35;;;3.05;;
7475;SDS011;3779;49.216;8.650;2022-08-25T02:02:40;3.60;;;3.30;;
7475;SDS011;3779;49.216;8.650;2022-08-25T02:05:26;3.70;;;2.97;;
7475;SDS011;3779;49.216;8.650;2022-08-25T02:08:12;4.25;;;3.30;;
7475;SDS011;3779;49.216;8.650;2022-08-25T02:10:59;5.82;;;3.20;;
7475;SDS011;3779;49.216;8.650;2022-08-25T02:13:45;3.65;;;3.25;;
7475;SDS011;3779;49.216;8.650;2022-08-25T02:16:32;3.40;;;3.10;;
7475;SDS011;3779;49.216;8.650;2022-08-25T02:19:21;4.47;;;3.53;;
7475;SDS011;3779;49.216;8.650;2022-08-25T02:22:08;4.28;;;2.97;;
7475;SDS011;3779;49.216;8.650;2022-08-25T02:24:54;4.13;;;3.20;;
7475;SDS011;3779;49.216;8.650;2022-08-25T02:27:40;5.10;;;3.60;;
7475;SDS011;3779;49.216;8.650;2022-08-25T02:30:26;3.38;;;3.03;;
7475;SDS011;3779;49.216;8.650;2022-08-25T02:33:12;3.83;;;3.53;;
7475;SDS011;3779;49.216;8.650;2022-08-25T02:35:58;4.95;;;3.70;;
7475;SDS011;3779;49.216;8.650;2022-08-25T02:38:45;3.47;;;3.10;;
7475;SDS011;3779;49.216;8.650;2022-08-25T02:41:31;4.07;;;3.67;;
7475;SDS011;3779;49.216;8.650;2022-08-25T02:44:17;4.05;;;3.40;;
7475;SDS011;3779;49.216;8.650;2022-08-25T02:47:03;3.40;;;3.10;;
7475;SDS011;3779;49.216;8.650;2022-08-25T02:49:49;4.03;;;3.58;;
7475;SDS011;3779;49.216;8.650;2022-08-25T02:52:35;4.60;;;3.60;;
7475;SDS011;3779;49.216;8.650;2022-08-25T02:55:21;5.25;;;4.25;;
7475;SDS011;3779;49.216;8.650;2022-08-25T02:58:08;4.68;;;3.65;;
7475;SDS011;3779;49.216;8.650;2022-08-25T03:00:54;4.82;;;3.65;;
7475;SDS011;3779;49.216;8.650;2022-08-25T03:03:41;4.00;;;3.70;;
7475;SDS011;3779;49.216;8.650;2022-08-25T03:06:28;5.38;;;3.92;;
7475;SDS011;3779;49.216;8.650;2022-08-25T03:09:14;4.65;;;3.83;;
7475;SDS011;3779;49.216;8.650;2022-08-25T03:12:02;4.85;;;3.90;;
7475;SDS011;3779;49.216;8.650;2022-08-25T03:14:48;4.25;;;3.95;;
7475;SDS011;3779;49.216;8.650;2022-08-25T03:17:34;4.10;;;3.70;;
7475;SDS011;3779;49.216;8.650;2022-08-25T03:20:22;3.55;;;3.30;;
7475;SDS011;3779;49.216;8.650;2022-08-25T03:23:10;4.30;;;3.90;;
7475;SDS011;3779;49.216;8.650;2022-08-25T03:25:56;4.15;;;3.78;;
7475;SDS011;3779;49.216;8.650;2022-08-25T03:29:01;4.47;;;3.80;;
7475;SDS011;3779;49.216;8.650;2022-08-25T03:31:50;5.40;;;3.95;;
7475;SDS011;3779;49.216;8.650;2022-08-25T03:34:36;4.35;;;4.00;;
7475;SDS011;3779;49.216;8.650;2022-08-25T03:37:23;4.00;;;3.70;;
7475;SDS011;3779;49.216;8.650;2022-08-25T03:40:10;3.92;;;3.63;;
7475;SDS011;3779;49.216;8.650;2022-08-25T03:42:58;5.90;;;4.20;;
7475;SDS011;3779;49.216;8.650;2022-08-25T03:45:44;4.55;;;4.15;;
7475;SDS011;3779;49.216;8.650;2022-08-25T03:48:31;4.40;;;4.00;;
7475;SDS011;3779;49.216;8.650;2022-08-25T03:51:29;3.97;;;3.67;;
7475;SDS011;3779;49.216;8.650;2022-08-25T03:54:20;7.25;;;4.53;;
7475;SDS011;3779;49.216;8.650;2022-08-25T03:57:07;5.28;;;4.35;;
7475;SDS011;3779;49.216;8.650;2022-08-25T03:59:53;4.60;;;4.15;;
7475;SDS011;3779;49.216;8.650;2022-08-25T04:02:39;4.82;;;4.18;;
7475;SDS011;3779;49.216;8.650;2022-08-25T04:05:25;6.10;;;4.57;;
7475;SDS011;3779;49.216;8.650;2022-08-25T04:08:11;5.82;;;4.50;;
7475;SDS011;3779;49.216;8.650;2022-08-25T04:10:57;5.07;;;4.55;;
7475;SDS011;3779;49.216;8.650;2022-08-25T04:13:44;5.28;;;4.47;;
7475;SDS011;3779;49.216;8.650;2022-08-25T04:16:32;4.63;;;4.22;;
7475;SDS011;3779;49.216;8.650;2022-08-25T04:19:19;6.45;;;4.50;;
7475;SDS011;3779;49.216;8.650;2022-08-25T04:22:05;4.55;;;4.15;;
7475;SDS011;3779;49.216;8.650;2022-08-25T04:24:51;4.93;;;4.53;;
7475;SDS011;3779;49.216;8.650;2022-08-25T04:27:36;4.80;;;4.40;;
7475;SDS011;3779;49.216;8.650;2022-08-25T04:30:22;4.78;;;4.30;;
7475;SDS011;3779;49.216;8.650;2022-08-25T04:33:08;5.35;;;4.20;;
7475;SDS011;3779;49.216;8.650;2022-08-25T04:35:54;4.65;;;4.25;;
7475;SDS011;3779;49.216;8.650;2022-08-25T04:38:41;4.57;;;3.97;;
7475;SDS011;3779;49.216;8.650;2022-08-25T04:41:27;7.43;;;4.82;;
7475;SDS011;3779;49.216;8.650;2022-08-25T04:44:14;4.57;;;4.18;;
7475;SDS011;3779;49.216;8.650;2022-08-25T04:47:00;5.60;;;4.90;;
7475;SDS011;3779;49.216;8.650;2022-08-25T04:49:46;5.28;;;4.88;;
7475;SDS011;3779;49.216;8.650;2022-08-25T04:52:32;5.07;;;4.57;;
7475;SDS011;3779;49.216;8.650;2022-08-25T04:55:18;6.22;;;4.53;;
7475;SDS011;3779;49.216;8.650;2022-08-25T04:58:04;5.50;;;4.95;;
7475;SDS011;3779;49.216;8.650;2022-08-25T05:00:50;5.60;;;4.90;;
7475;SDS011;3779;49.216;8.650;2022-08-25T05:03:36;5.45;;;4.75;;
7475;SDS011;3779;49.216;8.650;2022-08-25T05:06:23;5.60;;;4.93;;
7475;SDS011;3779;49.216;8.650;2022-08-25T05:09:09;4.95;;;4.50;;
7475;SDS011;3779;49.216;8.650;2022-08-25T05:11:55;6.45;;;4.78;;
7475;SDS011;3779;49.216;8.650;2022-08-25T05:14:41;5.22;;;4.72;;
7475;SDS011;3779;49.216;8.650;2022-08-25T05:17:27;4.78;;;4.38;;
7475;SDS011;3779;49.216;8.650;2022-08-25T05:20:13;6.20;;;5.50;;
7475;SDS011;3779;49.216;8.650;2022-08-25T05:22:59;5.57;;;5.07;;
7475;SDS011;3779;49.216;8.650;2022-08-25T05:25:45;6.68;;;5.05;;
7475;SDS011;3779;49.216;8.650;2022-08-25T05:28:31;8.43;;;5.22;;
7475;SDS011;3779;49.216;8.650;2022-08-25T05:31:17;5.78;;;5.20;;
7475;SDS011;3779;49.216;8.650;2022-08-25T05:34:04;5.82;;;5.10;;
7475;SDS011;3779;49.216;8.650;2022-08-25T05:36:51;5.13;;;4.72;;
7475;SDS011;3779;49.216;8.650;2022-08-25T05:39:38;4.93;;;4.53;;
7475;SDS011;3779;49.216;8.650;2022-08-25T05:42:24;6.82;;;4.65;;
7475;SDS011;3779;49.216;8.650;2022-08-25T05:45:10;5.10;;;4.70;;
7475;SDS011;3779;49.216;8.650;2022-08-25T05:47:56;5.57;;;5.05;;
7475;SDS011;3779;49.216;8.650;2022-08-25T05:50:49;4.95;;;4.55;;
7475;SDS011;3779;49.216;8.650;2022-08-25T05:53:37;6.28;;;5.05;;
7475;SDS011;3779;49.216;8.650;2022-08-25T05:56:24;6.45;;;5.47;;
7475;SDS011;3779;49.216;8.650;2022-08-25T05:59:10;7.60;;;5.30;;
7475;SDS011;3779;49.216;8.650;2022-08-25T06:01:56;5.95;;;5.35;;
7475;SDS011;3779;49.216;8.650;2022-08-25T06:05:00;5.70;;;5.20;;
7475;SDS011;3779;49.216;8.650;2022-08-25T06:07:47;5.60;;;5.10;;
7475;SDS011;3779;49.216;8.650;2022-08-25T06:10:35;6.05;;;5.10;;
7475;SDS011;3779;49.216;8.650;2022-08-25T06:13:21;5.35;;;4.85;;
7475;SDS011;3779;49.216;8.650;2022-08-25T06:16:08;6.10;;;5.50;;
7475;SDS011;3779;49.216;8.650;2022-08-25T06:18:54;6.00;;;5.40;;
7475;SDS011;3779;49.216;8.650;2022-08-25T06:21:40;6.78;;;5.60;;
7475;SDS011;3779;49.216;8.650;2022-08-25T06:24:26;5.68;;;5.20;;
7475;SDS011;3779;49.216;8.650;2022-08-25T06:27:13;6.15;;;5.55;;
7475;SDS011;3779;49.216;8.650;2022-08-25T06:29:59;5.93;;;5.32;;
7475;SDS011;3779;49.216;8.650;2022-08-25T06:32:48;5.72;;;5.13;;
7475;SDS011;3779;49.216;8.650;2022-08-25T06:35:34;4.95;;;4.50;;
7475;SDS011;3779;49.216;8.650;2022-08-25T06:38:21;6.05;;;5.57;;
7475;SDS011;3779;49.216;8.650;2022-08-25T06:41:08;6.35;;;5.35;;
7475;SDS011;3779;49.216;8.650;2022-08-25T06:43:55;7.82;;;5.20;;
7475;SDS011;3779;49.216;8.650;2022-08-25T06:46:41;3.95;;;3.65;;
7475;SDS011;3779;49.216;8.650;2022-08-25T06:49:27;5.82;;;5.22;;
7475;SDS011;3779;49.216;8.650;2022-08-25T06:52:13;5.30;;;4.80;;
7475;SDS011;3779;49.216;8.650;2022-08-25T06:54:59;5.65;;;5.15;;
7475;SDS011;3779;49.216;8.650;2022-08-25T06:57:45;5.93;;;5.00;;
7475;SDS011;3779;49.216;8.650;2022-08-25T07:00:32;7.20;;;5.10;;
7475;SDS011;3779;49.216;8.650;2022-08-25T07:03:18;3.78;;;3.47;;
7475;SDS011;3779;49.216;8.650;2022-08-25T07:06:04;5.97;;;5.45;;
7475;SDS011;3779;49.216;8.650;2022-08-25T07:08:51;5.70;;;5.20;;
7475;SDS011;3779;49.216;8.650;2022-08-25T07:11:38;3.63;;;3.33;;
7475;SDS011;3779;49.216;8.650;2022-08-25T07:14:27;4.40;;;4.10;;
7475;SDS011;3779;49.216;8.650;2022-08-25T07:17:13;6.93;;;5.22;;
7475;SDS011;3779;49.216;8.650;2022-08-25T07:19:59;3.90;;;3.50;;
7475;SDS011;3779;49.216;8.650;2022-08-25T07:22:45;5.07;;;4.57;;
7475;SDS011;3779;49.216;8.650;2022-08-25T07:25:32;6.45;;;5.68;;
7475;SDS011;3779;49.216;8.650;2022-08-25T07:28:19;6.68;;;5.07;;
7475;SDS011;3779;49.216;8.650;2022-08-25T07:31:06;4.47;;;4.07;;
7475;SDS011;3779;49.216;8.650;2022-08-25T07:33:52;5.03;;;4.53;;
7475;SDS011;3779;49.216;8.650;2022-08-25T07:36:57;5.53;;;4.88;;
7475;SDS011;3779;49.216;8.650;2022-08-25T07:39:43;5.00;;;3.40;;
7475;SDS011;3779;49.216;8.650;2022-08-25T07:42:29;3.78;;;3.47;;
7475;SDS011;3779;49.216;8.650;2022-08-25T07:45:14;5.88;;;5.00;;
7475;SDS011;3779;49.216;8.650;2022-08-25T07:50:51;4.47;;;3.67;;
7475;SDS011;3779;49.216;8.650;2022-08-25T07:53:37;6.03;;;4.75;;
7475;SDS011;3779;49.216;8.650;2022-08-25T07:56:24;4.00;;;3.60;;
7475;SDS011;3779;49.216;8.650;2022-08-25T07:59:10;5.40;;;4.47;;
7475;SDS011;3779;49.216;8.650;2022-08-25T08:01:56;6.03;;;4.38;;
7475;SDS011;3779;49.216;8.650;2022-08-25T08:04:42;3.20;;;2.90;;
7475;SDS011;3779;49.216;8.650;2022-08-25T08:07:29;4.22;;;3.92;;
7475;SDS011;3779;49.216;8.650;2022-08-25T08:10:15;5.00;;;4.55;;
7475;SDS011;3779;49.216;8.650;2022-08-25T08:13:02;4.60;;;4.18;;
7475;SDS011;3779;49.216;8.650;2022-08-25T08:15:48;3.30;;;3.00;;
7475;SDS011;3779;49.216;8.650;2022-08-25T08:18:34;3.22;;;2.92;;
7475;SDS011;3779;49.216;8.650;2022-08-25T08:21:25;4.32;;;2.85;;
7475;SDS011;3779;49.216;8.650;2022-08-25T08:24:13;4.78;;;4.35;;
7475;SDS011;3779;49.216;8.650;2022-08-25T08:26:59;2.65;;;2.45;;
7475;SDS011;3779;49.216;8.650;2022-08-25T08:29:45;3.67;;;2.92;;
7475;SDS011;3779;49.216;8.650;2022-08-25T08:32:32;3.90;;;3.10;;
7475;SDS011;3779;49.216;8.650;2022-08-25T08:35:17;5.35;;;4.43;;
7475;SDS011;3779;49.216;8.650;2022-08-25T08:38:03;3.38;;;3.08;;
7475;SDS011;3779;49.216;8.650;2022-08-25T08:41:07;5.63;;;3.80;;
7475;SDS011;3779;49.216;8.650;2022-08-25T08:47:35;4.45;;;3.25;;
7475;SDS011;3779;49.216;8.650;2022-08-25T08:50:37;3.60;;;2.28;;
7475;SDS011;3779;49.216;8.650;2022-08-25T08:53:44;7.72;;;3.60;;
7475;SDS011;3779;49.216;8.650;2022-08-25T08:56:37;2.90;;;2.60;;
7475;SDS011;3779;49.216;8.650;2022-08-25T08:59:27;2.88;;;2.67;;
7475;SDS011;3779;49.216;8.650;2022-08-25T09:02:28;3.35;;;3.05;;
7475;SDS011;3779;49.216;8.650;2022-08-25T09:05:20;2.95;;;2.65;;
7475;SDS011;3779;49.216;8.650;2022-08-25T09:08:10;5.00;;;3.15;;
7475;SDS011;3779;49.216;8.650;2022-08-25T09:20:56;2.38;;;2.17;;
7475;SDS011;3779;49.216;8.650;2022-08-25T09:24:16;2.60;;;1.80;;
7475;SDS011;3779;49.216;8.650;2022-08-25T09:30:13;4.10;;;3.70;;
7475;SDS011;3779;49.216;8.650;2022-08-25T09:33:01;2.47;;;2.13;;
7475;SDS011;3779;49.216;8.650;2022-08-25T09:35:49;4.22;;;3.35;;
7475;SDS011;3779;49.216;8.650;2022-08-25T09:38:37;2.17;;;1.95;;
7475;SDS011;3779;49.216;8.650;2022-08-25T09:44:35;4.50;;;3.70;;
7475;SDS011;3779;49.216;8.650;2022-08-25T09:47:24;4.72;;;2.92;;
7475;SDS011;3779;49.216;8.650;2022-08-25T09:50:16;5.18;;;3.33;;
7475;SDS011;3779;49.216;8.650;2022-08-25T09:53:09;5.07;;;2.83;;
7475;SDS011;3779;49.216;8.650;2022-08-25T09:56:00;3.10;;;2.50;;
7475;SDS011;3779;49.216;8.650;2022-08-25T09:58:50;5.03;;;3.70;;
7475;SDS011;3779;49.216;8.650;2022-08-25T10:01:44;3.67;;;3.38;;
7475;SDS011;3779;49.216;8.650;2022-08-25T10:04:37;3.95;;;3.33;;
7475;SDS011;3779;49.216;8.650;2022-08-25T10:07:25;4.53;;;3.50;;
7475;SDS011;3779;49.216;8.650;2022-08-25T10:10:18;4.93;;;3.38;;
7475;SDS011;3779;49.216;8.650;2022-08-25T10:13:30;4.28;;;3.70;;
7475;SDS011;3779;49.216;8.650;2022-08-25T10:16:29;6.88;;;3.85;;
7475;SDS011;3779;49.216;8.650;2022-08-25T10:19:24;5.93;;;3.65;;
7475;SDS011;3779;49.216;8.650;2022-08-25T10:22:22;6.35;;;3.47;;
7475;SDS011;3779;49.216;8.650;2022-08-25T10:25:28;3.90;;;3.15;;
7475;SDS011;3779;49.216;8.650;2022-08-25T10:28:23;4.45;;;3.60;;
7475;SDS011;3779;49.216;8.650;2022-08-25T10:37:30;5.10;;;3.72;;
7475;SDS011;3779;49.216;8.650;2022-08-25T10:47:26;4.75;;;4.28;;
7475;SDS011;3779;49.216;8.650;2022-08-25T10:50:22;4.28;;;3.78;;
7475;SDS011;3779;49.216;8.650;2022-08-25T10:56:16;5.75;;;4.13;;
7475;SDS011;3779;49.216;8.650;2022-08-25T11:06:06;6.13;;;2.55;;
7475;SDS011;3779;49.216;8.650;2022-08-25T11:08:59;4.40;;;3.80;;
7475;SDS011;3779;49.216;8.650;2022-08-25T11:11:59;3.95;;;3.08;;
7475;SDS011;3779;49.216;8.650;2022-08-25T11:14:51;7.05;;;3.58;;
7475;SDS011;3779;49.216;8.650;2022-08-25T11:17:44;4.05;;;2.80;;
7475;SDS011;3779;49.216;8.650;2022-08-25T11:20:57;4.75;;;4.20;;
7475;SDS011;3779;49.216;8.650;2022-08-25T11:24:02;4.72;;;3.80;;
7475;SDS011;3779;49.216;8.650;2022-08-25T11:26:58;4.03;;;3.63;;
7475;SDS011;3779;49.216;8.650;2022-08-25T11:29:52;3.90;;;2.90;;
7475;SDS011;3779;49.216;8.650;2022-08-25T11:32:46;3.83;;;3.03;;
7475;SDS011;3779;49.216;8.650;2022-08-25T11:35:41;5.03;;;3.40;;
7475;SDS011;3779;49.216;8.650;2022-08-25T11:44:51;5.15;;;3.40;;
7475;SDS011;3779;49.216;8.650;2022-08-25T11:51:03;5.43;;;4.10;;
7475;SDS011;3779;49.216;8.650;2022-08-25T11:54:03;6.35;;;4.32;;
7475;SDS011;3779;49.216;8.650;2022-08-25T11:57:01;4.15;;;3.67;;
7475;SDS011;3779;49.216;8.650;2022-08-25T12:02:47;3.40;;;3.10;;
7475;SDS011;3779;49.216;8.650;2022-08-25T12:05:51;5.47;;;3.45;;
7475;SDS011;3779;49.216;8.650;2022-08-25T12:11:48;6.05;;;3.28;;
7475;SDS011;3779;49.216;8.650;2022-08-25T12:14:44;4.28;;;3.30;;
7475;SDS011;3779;49.216;8.650;2022-08-25T12:17:36;4.60;;;3.40;;
7475;SDS011;3779;49.216;8.650;2022-08-25T12:20:59;4.40;;;3.83;;
7475;SDS011;3779;49.216;8.650;2022-08-25T12:24:03;4.47;;;3.78;;
7475;SDS011;3779;49.216;8.650;2022-08-25T12:26:55;6.15;;;3.72;;
7475;SDS011;3779;49.216;8.650;2022-08-25T12:29:46;4.55;;;3.63;;
7475;SDS011;3779;49.216;8.650;2022-08-25T12:33:03;4.25;;;3.50;;
7475;SDS011;3779;49.216;8.650;2022-08-25T12:35:58;5.32;;;3.17;;
7475;SDS011;3779;49.216;8.650;2022-08-25T12:38:47;3.55;;;3.22;;
7475;SDS011;3779;49.216;8.650;2022-08-25T12:41:34;4.32;;;3.40;;
7475;SDS011;3779;49.216;8.650;2022-08-25T12:47:29;5.88;;;3.50;;
7475;SDS011;3779;49.216;8.650;2022-08-25T12:50:28;3.70;;;2.90;;
7475;SDS011;3779;49.216;8.650;2022-08-25T12:56:31;3.63;;;3.33;;
7475;SDS011;3779;49.216;8.650;2022-08-25T12:59:22;5.35;;;3.50;;
7475;SDS011;3779;49.216;8.650;2022-08-25T13:02:32;6.57;;;3.50;;
7475;SDS011;3779;49.216;8.650;2022-08-25T13:08:49;3.50;;;3.00;;
7475;SDS011;3779;49.216;8.650;2022-08-25T13:14:53;3.92;;;2.60;;
7475;SDS011;3779;49.216;8.650;2022-08-25T13:17:40;5.13;;;2.88;;
7475;SDS011;3779;49.216;8.650;2022-08-25T13:20:26;5.35;;;2.95;;
7475;SDS011;3779;49.216;8.650;2022-08-25T13:23:21;4.13;;;3.20;;
7475;SDS011;3779;49.216;8.650;2022-08-25T13:26:13;3.95;;;2.75;;
7475;SDS011;3779;49.216;8.650;2022-08-25T13:34:42;4.35;;;3.33;;
7475;SDS011;3779;49.216;8.650;2022-08-25T13:37:28;5.55;;;3.00;;
7475;SDS011;3779;49.216;8.650;2022-08-25T13:43:09;5.05;;;3.60;;
7475;SDS011;3779;49.216;8.650;2022-08-25T13:45:57;4.38;;;3.40;;
7475;SDS011;3779;49.216;8.650;2022-08-25T13:48:43;4.13;;;3.25;;
7475;SDS011;3779;49.216;8.650;2022-08-25T13:51:29;4.22;;;3.22;;
7475;SDS011;3779;49.216;8.650;2022-08-25T13:54:26;4.40;;;3.45;;
7475;SDS011;3779;49.216;8.650;2022-08-25T13:57:21;4.82;;;3.35;;
7475;SDS011;3779;49.216;8.650;2022-08-25T14:00:08;5.65;;;3.55;;
7475;SDS011;3779;49.216;8.650;2022-08-25T14:02:56;4.05;;;3.13;;
7475;SDS011;3779;49.216;8.650;2022-08-25T14:05:42;3.63;;;3.33;;
7475;SDS011;3779;49.216;8.650;2022-08-25T14:08:31;4.57;;;3.10;;
7475;SDS011;3779;49.216;8.650;2022-08-25T14:11:29;3.33;;;3.03;;
7475;SDS011;3779;49.216;8.650;2022-08-25T14:17:08;2.53;;;2.25;;
7475;SDS011;3779;49.216;8.650;2022-08-25T14:19:54;3.72;;;3.42;;
7475;SDS011;3779;49.216;8.650;2022-08-25T14:22:41;5.75;;;3.95;;
7475;SDS011;3779;49.216;8.650;2022-08-25T14:25:27;4.97;;;3.33;;
7475;SDS011;3779;49.216;8.650;2022-08-25T14:28:15;3.55;;;3.03;;
7475;SDS011;3779;49.216;8.650;2022-08-25T14:31:14;4.38;;;3.67;;
7475;SDS011;3779;49.216;8.650;2022-08-25T14:36:59;5.22;;;3.35;;
7475;SDS011;3779;49.216;8.650;2022-08-25T14:39:45;3.25;;;2.75;;
7475;SDS011;3779;49.216;8.650;2022-08-25T14:42:30;3.75;;;3.03;;
7475;SDS011;3779;49.216;8.650;2022-08-25T14:45:17;3.40;;;2.58;;
7475;SDS011;3779;49.216;8.650;2022-08-25T14:48:04;3.13;;;2.75;;
7475;SDS011;3779;49.216;8.650;2022-08-25T14:50:53;2.85;;;2.50;;
7475;SDS011;3779;49.216;8.650;2022-08-25T14:53:42;3.20;;;2.90;;
7475;SDS011;3779;49.216;8.650;2022-08-25T14:56:29;3.85;;;2.80;;
7475;SDS011;3779;49.216;8.650;2022-08-25T14:59:16;3.15;;;2.85;;
7475;SDS011;3779;49.216;8.650;2022-08-25T15:02:02;3.80;;;2.00;;
7475;SDS011;3779;49.216;8.650;2022-08-25T15:04:54;3.22;;;2.38;;
7475;SDS011;3779;49.216;8.650;2022-08-25T15:07:43;4.10;;;2.95;;
7475;SDS011;3779;49.216;8.650;2022-08-25T15:10:48;2.53;;;2.33;;
7475;SDS011;3779;49.216;8.650;2022-08-25T15:13:34;3.45;;;2.58;;
7475;SDS011;3779;49.216;8.650;2022-08-25T15:16:28;3.00;;;2.78;;
7475;SDS011;3779;49.216;8.650;2022-08-25T15:19:17;4.20;;;3.15;;
7475;SDS011;3779;49.216;8.650;2022-08-25T15:22:05;2.97;;;2.67;;
7475;SDS011;3779;49.216;8.650;2022-08-25T15:24:51;3.15;;;2.90;;
7475;SDS011;3779;49.216;8.650;2022-08-25T15:27:36;3.72;;;3.10;;
7475;SDS011;3779;49.216;8.650;2022-08-25T15:30:22;3.05;;;2.40;;
7475;SDS011;3779;49.216;8.650;2022-08-25T15:33:08;5.45;;;3.05;;
7475;SDS011;3779;49.216;8.650;2022-08-25T15:35:54;5.90;;;2.80;;
7475;SDS011;3779;49.216;8.650;2022-08-25T15:38:40;4.70;;;3.00;;
7475;SDS011;3779;49.216;8.650;2022-08-25T15:41:30;3.30;;;2.67;;
7475;SDS011;3779;49.216;8.650;2022-08-25T15:44:17;4.95;;;2.95;;
7475;SDS011;3779;49.216;8.650;2022-08-25T15:47:03;3.42;;;3.03;;
7475;SDS011;3779;49.216;8.650;2022-08-25T15:49:49;3.78;;;3.03;;
7475;SDS011;3779;49.216;8.650;2022-08-25T15:52:43;2.72;;;2.45;;
7475;SDS011;3779;49.216;8.650;2022-08-25T15:55:30;3.30;;;3.00;;
7475;SDS011;3779;49.216;8.650;2022-08-25T15:58:16;4.18;;;2.63;;
7475;SDS011;3779;49.216;8.650;2022-08-25T16:01:03;2.90;;;2.28;;
7475;SDS011;3779;49.216;8.650;2022-08-25T16:03:49;3.35;;;3.05;;
7475;SDS011;3779;49.216;8.650;2022-08-25T16:06:35;2.50;;;2.30;;
7475;SDS011;3779;49.216;8.650;2022-08-25T16:09:21;2.72;;;2.30;;
7475;SDS011;3779;49.216;8.650;2022-08-25T16:12:08;3.50;;;2.03;;
7475;SDS011;3779;49.216;8.650;2022-08-25T16:14:53;2.40;;;2.20;;
7475;SDS011;3779;49.216;8.650;2022-08-25T16:17:39;3.47;;;2.67;;
7475;SDS011;3779;49.216;8.650;2022-08-25T16:20:26;2.28;;;2.08;;
7475;SDS011;3779;49.216;8.650;2022-08-25T16:23:13;2.90;;;2.28;;
7475;SDS011;3779;49.216;8.650;2022-08-25T16:26:02;2.33;;;1.88;;
7475;SDS011;3779;49.216;8.650;2022-08-25T16:28:49;3.40;;;2.78;;
7475;SDS011;3779;49.216;8.650;2022-08-25T16:31:35;4.35;;;2.65;;
7475;SDS011;3779;49.216;8.650;2022-08-25T16:34:22;3.78;;;2.80;;
7475;SDS011;3779;49.216;8.650;2022-08-25T16:37:08;3.45;;;3.15;;
7475;SDS011;3779;49.216;8.650;2022-08-25T16:39:55;2.78;;;2.55;;
7475;SDS011;3779;49.216;8.650;2022-08-25T16:42:41;2.72;;;2.53;;
7475;SDS011;3779;49.216;8.650;2022-08-25T16:45:27;3.08;;;2.78;;
7475;SDS011;3779;49.216;8.650;2022-08-25T16:48:13;4.75;;;2.92;;
7475;SDS011;3779;49.216;8.650;2022-08-25T16:50:59;2.70;;;2.50;;
7475;SDS011;3779;49.216;8.650;2022-08-25T16:53:44;2.63;;;2.33;;
7475;SDS011;3779;49.216;8.650;2022-08-25T16:56:50;3.70;;;2.60;;
7475;SDS011;3779;49.216;8.650;2022-08-25T16:59:35;2.83;;;2.55;;
7475;SDS011;3779;49.216;8.650;2022-08-25T17:02:21;3.05;;;2.13;;
7475;SDS011;3779;49.216;8.650;2022-08-25T17:05:07;2.72;;;2.35;;
7475;SDS011;3779;49.216;8.650;2022-08-25T17:07:55;2.28;;;1.83;;
7475;SDS011;3779;49.216;8.650;2022-08-25T17:11:09;2.45;;;2.25;;
7475;SDS011;3779;49.216;8.650;2022-08-25T17:13:56;2.35;;;2.15;;
7475;SDS011;3779;49.216;8.650;2022-08-25T17:16:44;2.78;;;2.35;;
7475;SDS011;3779;49.216;8.650;2022-08-25T17:19:31;2.97;;;2.20;;
7475;SDS011;3779;49.216;8.650;2022-08-25T17:22:17;5.07;;;2.65;;
7475;SDS011;3779;49.216;8.650;2022-08-25T17:25:03;3.47;;;2.67;;
7475;SDS011;3779;49.216;8.650;2022-08-25T17:27:49;2.75;;;2.13;;
7475;SDS011;3779;49.216;8.650;2022-08-25T17:30:36;3.70;;;2.33;;
7475;SDS011;3779;49.216;8.650;2022-08-25T17:33:23;2.55;;;2.15;;
7475;SDS011;3779;49.216;8.650;2022-08-25T17:36:09;2.72;;;2.13;;
7475;SDS011;3779;49.216;8.650;2022-08-25T17:38:55;3.50;;;1.95;;
7475;SDS011;3779;49.216;8.650;2022-08-25T17:41:41;2.17;;;1.98;;
7475;SDS011;3779;49.216;8.650;2022-08-25T17:44:28;2.72;;;2.10;;
7475;SDS011;3779;49.216;8.650;2022-08-25T17:47:14;2.10;;;1.90;;
7475;SDS011;3779;49.216;8.650;2022-08-25T17:49:59;2.58;;;2.00;;
7475;SDS011;3779;49.216;8.650;2022-08-25T17:52:45;2.95;;;2.13;;
7475;SDS011;3779;49.216;8.650;2022-08-25T17:55:31;2.55;;;1.90;;
7475;SDS011;3779;49.216;8.650;2022-08-25T17:58:17;2.65;;;2.22;;
7475;SDS011;3779;49.216;8.650;2022-08-25T18:01:04;2.60;;;2.08;;
7475;SDS011;3779;49.216;8.650;2022-08-25T18:03:50;1.92;;;1.80;;
7475;SDS011;3779;49.216;8.650;2022-08-25T18:06:37;2.42;;;1.95;;
7475;SDS011;3779;49.216;8.650;2022-08-25T18:09:23;3.03;;;2.22;;
7475;SDS011;3779;49.216;8.650;2022-08-25T18:12:09;2.08;;;1.80;;
7475;SDS011;3779;49.216;8.650;2022-08-25T18:14:55;3.22;;;1.95;;
7475;SDS011;3779;49.216;8.650;2022-08-25T18:17:41;1.75;;;1.65;;
7475;SDS011;3779;49.216;8.650;2022-08-25T18:20:27;2.75;;;1.80;;
7475;SDS011;3779;49.216;8.650;2022-08-25T18:23:13;3.65;;;2.20;;
7475;SDS011;3779;49.216;8.650;2022-08-25T18:25:59;1.33;;;1.23;;
7475;SDS011;3779;49.216;8.650;2022-08-25T18:28:46;3.28;;;1.95;;
7475;SDS011;3779;49.216;8.650;2022-08-25T18:31:33;0.93;;;0.90;;
7475;SDS011;3779;49.216;8.650;2022-08-25T18:34:19;2.20;;;1.80;;
7475;SDS011;3779;49.216;8.650;2022-08-25T18:37:06;1.92;;;1.80;;
7475;SDS011;3779;49.216;8.650;2022-08-25T18:40:11;2.10;;;1.90;;
7475;SDS011;3779;49.216;8.650;2022-08-25T18:43:10;1.67;;;1.30;;
7475;SDS011;3779;49.216;8.650;2022-08-25T18:45:57;1.40;;;1.30;;
7475;SDS011;3779;49.216;8.650;2022-08-25T18:48:48;2.47;;;1.92;;
7475;SDS011;3779;49.216;8.650;2022-08-25T18:51:35;2.58;;;1.95;;
7475;SDS011;3779;49.216;8.650;2022-08-25T18:54:21;1.38;;;1.27;;
7475;SDS011;3779;49.216;8.650;2022-08-25T18:57:07;2.88;;;1.33;;
7475;SDS011;3779;49.216;8.650;2022-08-25T18:59:53;3.38;;;1.80;;
7475;SDS011;3779;49.216;8.650;2022-08-25T19:02:39;3.63;;;2.90;;
7475;SDS011;3779;49.216;8.650;2022-08-25T19:05:32;7.65;;;3.60;;